• Join FlightAware (Why Join?)
  • Login
  • US Flag 
 
05:23PM EST


 

Airport Tracker/Info


-or-


 

Live Flight TrackerFlight Track Log ✈ UAL4108 ✈ 14-Apr-2013 ✈ KLIT - KIAH

Flight Track Log - Related Links

Times and Time Zones

All times are in EDT time to prevent confusion due to time zone crossing. See the UAL4108 flight status page for this flight to view local times or setup timezone preferences in your user account.

Time Position Orientation Groundspeed Altitude Reporting Facility
EDT Latitude Longitude Course Direction KTS MPH feet Rate Location/Type
08:26PM 34.7156 -92.2494 202° Southwest 174 200 900  Level Memphis Center
08:27PM 34.6675 -92.2611 191° South 173 199 3,400 2,100 Climbing Memphis Center
08:28PM 34.6031 -92.2494 172° South 257 296 5,400 2,160 Climbing Memphis Center
08:29PM 34.4116 -92.4459 190° South  Level Estimated
08:29PM 34.5200 -92.2225 165° South 279 321 8,100  Level Memphis Center
08:30PM 34.3321 -92.5009 193° South  Level Estimated
08:30PM 34.4406 -92.2258 182° South 279 321 10,300  Level Memphis Center
08:31PM 34.2526 -92.5558 202° Southwest  Level Estimated
08:31PM 34.3483 -92.2439 189° South 304 350 11,400  Level Memphis Center
08:32PM 34.2500 -92.2594 187° South 342 394 13,200 1,740 Climbing Memphis Center
08:34PM 34.0692 -92.2989 190° South 363 418 16,500 1,800 Climbing Fort Worth Center
08:35PM 33.9636 -92.3178 188° South 369 425 18,500 1,680 Climbing Fort Worth Center
08:36PM 33.8619 -92.3361 189° South 369 425 19,900 1,380 Climbing Fort Worth Center
08:37PM 33.7564 -92.3572 189° South 380 437 21,300 1,020 Climbing Fort Worth Center
08:38PM 33.6444 -92.3736 187° South 392 451 22,000 300 Climbing Fort Worth Center
08:39PM 33.5222 -92.3981 189° South 419 482 22,000  Level Fort Worth Center
08:40PM 33.4022 -92.4197 189° South 434 499 22,000  Level Fort Worth Center
08:41PM 33.2778 -92.4417 188° South 447 514 22,000  Level Fort Worth Center
08:42PM 33.1556 -92.4636 189° South 447 514 22,000  Level Fort Worth Center
08:43PM 33.0311 -92.4853 188° South 447 514 22,000  Level Fort Worth Center
08:44PM 32.9108 -92.5067 188° South 441 507 22,000  Level Fort Worth Center
08:45PM 32.7867 -92.5283 188° South 446 513 22,000  Level Fort Worth Center
08:46PM 32.6600 -92.5500 188° South 451 519 22,000  Level Fort Worth Center
08:47PM 32.5378 -92.5739 189° South 451 519 22,000  Level Fort Worth Center
08:48PM 32.3586 -92.6078 189° South 450 518 22,000  Level Houston Center
08:49PM 32.2350 -92.6303 189° South 450 518 22,000  Level Houston Center
08:50PM 32.1103 -92.6531 189° South 453 521 22,000  Level Houston Center
08:51PM 31.9861 -92.6778 190° South 453 521 22,000  Level Houston Center
08:52PM 31.8886 -92.7597 216° Southwest 435 501 22,000  Level Houston Center
08:53PM 31.7797 -92.8661 220° Southwest 428 493 22,000  Level Houston Center
08:54PM 31.6878 -92.9550 219° Southwest 429 494 22,000  Level Houston Center
08:55PM 31.5964 -93.0431 219° Southwest 427 491 22,000  Level Houston Center
08:56PM 31.5047 -93.1308 219° Southwest 428 493 22,000  Level Houston Center
08:57PM 31.4128 -93.2178 219° Southwest 427 491 22,000  Level Houston Center
08:58PM 31.3203 -93.3072 220° Southwest 430 495 22,000  Level Houston Center
08:59PM 31.2250 -93.3972 219° Southwest 430 495 22,000  Level Houston Center
09:00PM 31.1339 -93.4831 219° Southwest 422 486 22,000  Level Houston Center
09:01PM 31.0294 -93.5825 219° Southwest 407 468 22,000  Level Houston Center
09:03PM 30.9419 -93.6647 219° Southwest 406 467 22,000  Level Houston Center
09:04PM 30.8544 -93.7489 220° Southwest 409 471 22,000  Level Houston Center
09:05PM 30.7647 -93.8333 219° Southwest 415 478 22,000 -60 Level Houston Center
09:06PM 30.6756 -93.9181 219° Southwest 417 480 21,900 -780 Descending Houston Center
09:07PM 30.5869 -94.0014 219° Southwest 415 478 20,500 -1,800 Descending Houston Center
09:08PM 30.4842 -94.0972 219° Southwest 401 461 18,300 -2,280 Descending Houston Center
09:08PM 30.4425 -94.1358 219° Southwest 384 442 17,100 -2,340 Descending Houston Center
09:09PM 30.4031 -94.1722 219° Southwest 379 436 15,900 -2,100 Descending Houston Center
09:09PM 30.3636 -94.2094 219° Southwest 372 428 15,000 -2,040 Descending Houston Center
09:10PM 30.3206 -94.2500 219° Southwest 383 441 13,800 -2,280 Descending Houston Center
09:10PM 30.2792 -94.2886 219° Southwest 374 430 12,700 -1,620 Descending Houston Center
09:11PM 30.2444 -94.3203 218° Southwest 359 413 12,200 -840 Descending Houston Center
09:11PM 30.2064 -94.3611 223° Southwest 333 383 11,900 -1,020 Descending Houston Center
09:12PM 30.1922 -94.4039 249° West 333 383 11,200 -1,560 Descending Houston Center
09:12PM 30.1794 -94.4708 258° West 315 362 10,200 -1,200 Descending Houston Center
09:13PM 30.1739 -94.5086 260° West 311 358 10,000 -780 Descending Houston Center
09:13PM 30.1664 -94.5525 259° West 275 316 9,500 -1,020 Descending Houston Center
09:14PM 30.1589 -94.5950 258° West 281 323 9,000 -1,020 Descending Houston Center
09:14PM 30.1494 -94.6392 256° West 280 322 8,500 -1,020 Descending Houston Center
09:15PM 30.1444 -94.6819 262° West 277 319 8,000 -1,140 Descending Houston Center
09:15PM 30.1347 -94.7258 256° West 275 316 7,400 -1,140 Descending Houston Center
09:16PM 30.1286 -94.7675 260° West 275 316 6,900 -1,020 Descending Houston Center
09:16PM 30.1217 -94.8094 259° West 269 310 6,400 -900 Descending Houston Center
09:17PM 30.1144 -94.8508 259° West 269 310 6,000 -420 Descending Houston Center
09:17PM 30.1039 -94.9083 258° West 269 310 6,000  Level Houston Center
09:18PM 30.1056 -94.9375 274° West 272 313 6,000  Level Houston Center
09:18PM 30.1058 -94.9953 270° West 273 314 6,000  Level Houston Center
09:19PM 30.1067 -95.0403 271° West 269 310 6,000  Level Houston Center
09:19PM 30.1069 -95.0747 271° West 266 306 6,000  Level Houston Center
09:20PM 30.1072 -95.1256 270° West 268 308 6,000  Level Houston Center
09:20PM 30.1067 -95.1617 269° West 271 312 6,000  Level Houston Center
09:21PM 30.1072 -95.2131 271° West 274 315 6,000  Level Houston Center
09:21PM 30.1075 -95.2608 270° West 270 311 6,000  Level Houston Center
09:22PM 30.1075 -95.2961 270° West 263 303 6,000  Level Houston Center
09:22PM 30.1067 -95.3431 269° West 258 297 6,000 -240 Level Houston Center
09:23PM 30.1078 -95.3783 272° West 257 296 5,800 -840 Descending Houston Center
09:23PM 30.1058 -95.4275 267° West 269 310 5,200 -1,020 Descending Houston Center
09:24PM 30.1078 -95.4636 274° West 265 305 4,800 -1,140 Descending Houston Center
09:24PM 30.1072 -95.5119 269° West 263 303 4,100 -1,020 Descending Houston Center
09:25PM 30.0900 -95.5364 231° Southwest 255 293 3,800 -600 Descending Houston Center